createdAt,value
2019-01-30T00:00:16.204Z,98875.58
2019-01-30T00:03:19.559Z,98870.02
2019-01-30T00:06:23.013Z,98865.30
2019-01-30T00:09:26.404Z,98856.78
2019-01-30T00:12:29.760Z,98852.91
2019-01-30T00:15:34.099Z,98849.94
2019-01-30T00:18:49.893Z,98848.64
2019-01-30T00:21:53.263Z,98837.58
2019-01-30T00:24:56.639Z,98839.30
2019-01-30T00:28:00.003Z,98832.45
2019-01-30T00:31:03.378Z,98835.89
2019-01-30T00:34:06.742Z,98825.20
2019-01-30T00:37:10.139Z,98816.23
2019-01-30T00:40:15.836Z,98810.70
2019-01-30T00:43:19.486Z,98806.41
2019-01-30T00:46:22.855Z,98808.98
2019-01-30T00:49:26.226Z,98809.41
2019-01-30T00:52:29.598Z,98797.88
2019-01-30T00:55:32.995Z,98796.18
2019-01-30T00:58:36.353Z,98795.33
2019-01-30T01:01:39.725Z,98795.75
2019-01-30T01:04:43.093Z,98787.22
2019-01-30T01:07:46.903Z,98797.01
2019-01-30T01:10:50.264Z,98786.77
2019-01-30T01:13:53.643Z,98785.48
2019-01-30T01:16:57.013Z,98783.77
2019-01-30T01:20:00.690Z,98780.33
2019-01-30T01:23:05.480Z,98766.27
2019-01-30T01:26:08.832Z,98770.52
2019-01-30T01:29:12.278Z,98767.55
2019-01-30T01:32:15.659Z,98773.98
2019-01-30T01:35:19.185Z,98756.91
2019-01-30T01:38:22.558Z,98759.48
2019-01-30T01:41:25.932Z,98744.55
2019-01-30T01:44:29.312Z,98740.70
2019-01-30T01:47:32.696Z,98739.84
2019-01-30T01:50:55.412Z,98734.30
2019-01-30T01:53:58.790Z,98725.33
2019-01-30T01:57:02.157Z,98716.78
2019-01-30T02:00:34.952Z,98716.81
2019-01-30T02:03:30.125Z,98704.42
2019-01-30T02:06:33.505Z,98704.84
2019-01-30T02:09:36.884Z,98700.59
2019-01-30T02:12:40.328Z,98690.36
2019-01-30T02:15:43.701Z,98686.52
2019-01-30T02:18:47.079Z,98675.42
2019-01-30T02:21:50.443Z,98671.14
2019-01-30T02:24:53.839Z,98669.00
2019-01-30T02:27:57.386Z,98662.20
2019-01-30T02:31:00.769Z,98658.34
2019-01-30T02:37:33.398Z,98644.69
2019-01-30T02:40:36.795Z,98640.02
2019-01-30T02:43:40.165Z,98634.47
2019-01-30T02:46:43.555Z,98623.34
2019-01-30T02:49:46.919Z,98616.11
2019-01-30T02:52:50.296Z,98614.39
2019-01-30T02:55:53.692Z,98606.62
2019-01-30T02:58:57.306Z,98604.54
2019-01-30T03:05:50.969Z,98592.05
2019-01-30T03:08:54.320Z,98595.64
2019-01-30T03:11:57.705Z,98594.79
2019-01-30T03:15:01.078Z,98590.86
2019-01-30T03:18:04.525Z,98584.09
2019-01-30T03:21:07.899Z,98584.57
2019-01-30T03:24:11.266Z,98586.27
2019-01-30T03:27:14.638Z,98574.32
2019-01-30T03:30:57.919Z,98573.45
2019-01-30T03:34:01.300Z,98566.61
2019-01-30T03:37:04.738Z,98562.81
2019-01-30T03:40:48.218Z,98563.30
2019-01-30T03:43:51.590Z,98575.63
2019-01-30T03:46:55.054Z,98575.95
2019-01-30T03:49:58.445Z,98572.06
2019-01-30T03:53:01.814Z,98574.18
2019-01-30T03:56:05.257Z,98564.05
2019-01-30T03:59:08.630Z,98561.91
2019-01-30T04:02:11.989Z,98563.19
2019-01-30T04:05:15.436Z,98557.61
2019-01-30T04:08:18.821Z,98557.20
2019-01-30T04:11:22.175Z,98554.11
2019-01-30T04:14:44.899Z,98556.84
2019-01-30T04:17:48.337Z,98551.70
2019-01-30T04:20:51.711Z,98551.78
2019-01-30T04:23:55.100Z,98543.58
2019-01-30T04:26:58.467Z,98540.23
2019-01-30T04:30:01.839Z,98538.08
2019-01-30T04:33:05.277Z,98538.98
2019-01-30T04:36:08.750Z,98532.09
2019-01-30T04:39:12.183Z,98538.47
2019-01-30T04:42:15.543Z,98531.61
2019-01-30T04:45:58.856Z,98527.43
2019-01-30T04:49:21.569Z,98524.88
2019-01-30T04:52:24.948Z,98529.98
2019-01-30T04:55:28.319Z,98525.73
2019-01-30T04:58:31.694Z,98529.94
2019-01-30T05:01:35.070Z,98525.75
2019-01-30T05:04:38.510Z,98529.13
2019-01-30T05:07:41.956Z,98521.48
2019-01-30T05:10:45.334Z,98508.19
2019-01-30T05:13:48.709Z,98509.89
2019-01-30T05:16:52.094Z,98510.78
2019-01-30T05:19:55.453Z,98510.82
2019-01-30T05:22:58.838Z,98516.25
2019-01-30T05:26:02.289Z,98520.89
2019-01-30T05:29:05.724Z,98518.34
2019-01-30T05:32:09.108Z,98522.16
2019-01-30T05:38:41.777Z,98530.78
2019-01-30T05:41:45.147Z,98525.59
2019-01-30T05:44:48.510Z,98535.86
2019-01-30T05:47:51.896Z,98533.75
2019-01-30T05:50:55.271Z,98530.75
2019-01-30T05:53:58.676Z,98520.45
2019-01-30T05:57:02.057Z,98518.40
2019-01-30T06:00:45.330Z,98518.42
2019-01-30T06:03:48.708Z,98511.20
2019-01-30T06:06:52.100Z,98508.05
2019-01-30T06:09:55.468Z,98506.02
2019-01-30T06:13:18.182Z,98505.20
2019-01-30T06:16:21.597Z,98497.48
2019-01-30T06:19:24.932Z,98497.18
2019-01-30T06:22:47.720Z,98496.38
2019-01-30T06:26:10.446Z,98500.13
2019-01-30T06:29:13.832Z,98492.02
2019-01-30T06:32:21.901Z,98491.51
2019-01-30T06:35:41.648Z,98494.56
2019-01-30T06:38:45.033Z,98483.11
2019-01-30T06:41:49.309Z,98480.16
2019-01-30T06:44:52.689Z,98479.68
2019-01-30T06:48:15.440Z,98477.99
2019-01-30T06:51:18.815Z,98482.74
2019-01-30T06:54:34.727Z,98475.09
2019-01-30T06:57:38.171Z,98476.84
2019-01-30T07:00:41.547Z,98479.78
2019-01-30T07:03:44.976Z,98488.33
2019-01-30T07:06:48.360Z,98490.88
2019-01-30T07:09:51.732Z,98478.92
2019-01-30T07:12:55.170Z,98482.77
2019-01-30T07:15:58.546Z,98485.79
2019-01-30T07:19:01.922Z,98491.73
2019-01-30T07:22:05.281Z,98482.77
2019-01-30T07:25:29.447Z,98483.63
2019-01-30T07:28:32.814Z,98478.09
2019-01-30T07:31:36.196Z,98478.96
2019-01-30T07:34:39.590Z,98479.83
2019-01-30T07:37:42.954Z,98473.39
2019-01-30T07:40:46.341Z,98478.53
2019-01-30T07:43:49.705Z,98478.95
2019-01-30T07:46:53.086Z,98482.79
2019-01-30T07:49:56.467Z,98476.84
2019-01-30T07:52:59.901Z,98472.17
2019-01-30T07:56:03.481Z,98475.99
2019-01-30T07:59:06.942Z,98481.94
2019-01-30T08:02:13.814Z,98476.84
2019-01-30T08:05:17.268Z,98481.53
2019-01-30T08:08:20.634Z,98476.80
2019-01-30T08:11:24.019Z,98477.24
2019-01-30T08:14:27.404Z,98475.55
2019-01-30T08:17:30.817Z,98470.85
2019-01-30T08:20:34.188Z,98463.16
2019-01-30T08:23:38.540Z,98473.01
2019-01-30T08:26:41.961Z,98467.45
2019-01-30T08:29:45.661Z,98475.12
2019-01-30T08:32:49.511Z,98468.66
2019-01-30T08:35:52.881Z,98469.53
2019-01-30T08:38:56.251Z,98473.76
2019-01-30T08:41:59.635Z,98471.11
2019-01-30T08:45:03.271Z,98471.61
2019-01-30T08:48:06.648Z,98475.44
2019-01-30T08:51:10.086Z,98478.89
2019-01-30T08:54:13.457Z,98474.08
2019-01-30T08:57:17.089Z,98480.34
2019-01-30T09:00:25.700Z,98476.95
2019-01-30T09:03:29.193Z,98475.27
2019-01-30T09:06:32.540Z,98474.81
2019-01-30T09:09:35.911Z,98474.46
2019-01-30T09:12:39.348Z,98483.42
2019-01-30T09:15:42.731Z,98476.91
2019-01-30T09:18:46.107Z,98475.55
2019-01-30T09:21:49.475Z,98484.30
2019-01-30T09:24:52.858Z,98483.13
2019-01-30T09:27:56.264Z,98481.85
2019-01-30T09:30:59.615Z,98480.24
2019-01-30T09:34:02.998Z,98485.33
2019-01-30T09:37:06.395Z,98489.50
2019-01-30T09:40:12.920Z,98484.81
2019-01-30T09:43:23.233Z,98486.01
2019-01-30T09:46:26.610Z,98486.64
2019-01-30T09:49:29.983Z,98478.47
2019-01-30T09:52:33.353Z,98484.39
2019-01-30T09:55:36.739Z,98485.13
2019-01-30T09:58:40.115Z,98485.16
2019-01-30T10:01:43.555Z,98491.09
2019-01-30T10:04:46.872Z,98494.16
2019-01-30T10:07:50.238Z,98486.41
2019-01-30T10:10:53.620Z,98490.53
2019-01-30T10:13:57.002Z,98496.35
2019-01-30T10:17:00.357Z,98487.97
2019-01-30T10:20:04.905Z,98497.09
2019-01-30T10:23:08.356Z,98494.03
2019-01-30T10:26:11.738Z,98498.55
2019-01-30T10:29:15.124Z,98498.38
2019-01-30T10:32:18.503Z,98499.05
2019-01-30T10:35:21.950Z,98495.23
2019-01-30T10:38:25.363Z,98493.39
2019-01-30T10:41:28.725Z,98494.09
2019-01-30T10:44:32.212Z,98498.77
2019-01-30T10:47:35.627Z,98488.14
2019-01-30T10:50:39.044Z,98486.69
2019-01-30T10:53:42.434Z,98485.08
2019-01-30T10:56:45.818Z,98485.45
2019-01-30T10:59:49.187Z,98487.52
2019-01-30T11:02:52.620Z,98490.68
2019-01-30T11:05:56.296Z,98491.09
2019-01-30T11:08:59.659Z,98485.00
2019-01-30T11:12:05.073Z,98495.33
2019-01-30T11:15:12.095Z,98502.65
2019-01-30T11:18:15.531Z,98489.22
2019-01-30T11:21:18.908Z,98492.59
2019-01-30T11:24:22.266Z,98501.94
2019-01-30T11:27:26.609Z,98492.38
2019-01-30T11:30:30.006Z,98498.27
2019-01-30T11:33:33.369Z,98498.03
2019-01-30T11:36:36.748Z,98499.19
2019-01-30T11:39:40.198Z,98495.28
2019-01-30T11:42:43.740Z,98491.40
2019-01-30T11:45:47.359Z,98490.30
2019-01-30T11:48:56.380Z,98493.63
2019-01-30T11:51:55.874Z,98495.80
2019-01-30T11:54:59.557Z,98494.09
2019-01-30T11:58:03.021Z,98493.39
2019-01-30T12:01:06.377Z,98502.79
2019-01-30T12:04:17.729Z,98504.19
2019-01-30T12:07:15.887Z,98507.12
2019-01-30T12:10:19.265Z,98505.94
2019-01-30T12:13:22.754Z,98497.80
2019-01-30T12:16:26.107Z,98505.41
2019-01-30T12:19:29.487Z,98510.48
2019-01-30T12:22:32.874Z,98506.27
2019-01-30T12:25:36.301Z,98509.09
2019-01-30T12:28:40.648Z,98506.29
2019-01-30T12:31:44.031Z,98512.02
2019-01-30T12:34:47.402Z,98513.05
2019-01-30T12:37:50.857Z,98518.83
2019-01-30T12:40:54.221Z,98512.16
2019-01-30T12:43:57.596Z,98516.50
2019-01-30T12:47:01.976Z,98533.62
2019-01-30T12:50:08.220Z,98530.09
2019-01-30T12:53:11.707Z,98531.43
2019-01-30T12:56:15.090Z,98529.66
2019-01-30T12:59:18.488Z,98536.19
2019-01-30T13:02:28.001Z,98533.22
2019-01-30T13:05:31.613Z,98536.34
2019-01-30T13:08:41.948Z,98543.92
2019-01-30T13:11:45.365Z,98541.77
2019-01-30T13:14:48.739Z,98543.02
2019-01-30T13:17:59.553Z,98546.47
2019-01-30T13:21:02.917Z,98554.16
2019-01-30T13:24:06.650Z,98552.58
2019-01-30T13:27:10.257Z,98556.38
2019-01-30T13:30:19.925Z,98551.89
2019-01-30T13:33:23.324Z,98559.64
2019-01-30T13:36:26.696Z,98563.59
2019-01-30T13:39:35.100Z,98566.03
2019-01-30T13:42:38.474Z,98565.72
2019-01-30T13:45:41.863Z,98563.11
2019-01-30T13:48:45.263Z,98561.94
2019-01-30T13:51:48.641Z,98564.91
2019-01-30T13:54:52.087Z,98573.85
2019-01-30T13:57:55.546Z,98564.45
2019-01-30T14:00:58.937Z,98580.10
2019-01-30T14:04:02.414Z,98589.41
2019-01-30T14:07:05.802Z,98594.11
2019-01-30T14:10:28.831Z,98597.88
2019-01-30T14:13:32.203Z,98614.23
2019-01-30T14:16:35.614Z,98619.05
2019-01-30T14:19:38.972Z,98615.22
2019-01-30T14:22:42.350Z,98619.42
2019-01-30T14:26:05.061Z,98629.66
2019-01-30T14:29:08.431Z,98631.27
2019-01-30T14:32:11.811Z,98635.52
2019-01-30T14:35:15.197Z,98636.87
2019-01-30T14:38:18.565Z,98647.45
2019-01-30T14:41:22.078Z,98652.60
2019-01-30T14:44:25.710Z,98663.30
2019-01-30T14:47:29.078Z,98663.67
2019-01-30T14:50:32.528Z,98668.02
2019-01-30T14:53:35.932Z,98670.58
2019-01-30T14:56:58.644Z,98676.48
2019-01-30T15:00:02.107Z,98683.83
2019-01-30T15:03:47.448Z,98695.39
2019-01-30T15:06:50.692Z,98696.69
2019-01-30T15:09:54.070Z,98703.44
2019-01-30T15:12:57.606Z,98713.23
2019-01-30T15:16:00.985Z,98711.06
2019-01-30T15:22:33.740Z,98727.80
2019-01-30T15:25:37.105Z,98733.33
2019-01-30T15:28:40.486Z,98732.43
2019-01-30T15:31:43.854Z,98736.80
2019-01-30T15:34:47.321Z,98737.67
2019-01-30T15:37:50.715Z,98744.91
2019-01-30T15:41:13.422Z,98752.17
2019-01-30T15:44:16.807Z,98753.89
2019-01-30T15:47:20.176Z,98760.73
2019-01-30T15:51:03.467Z,98767.14
2019-01-30T15:54:26.185Z,98770.12
2019-01-30T15:57:29.562Z,98774.42
2019-01-30T16:01:12.847Z,98774.81
2019-01-30T16:04:17.550Z,98775.23
2019-01-30T16:07:21.384Z,98773.95
2019-01-30T16:10:24.905Z,98789.31
2019-01-30T16:13:28.322Z,98791.06
2019-01-30T16:16:31.683Z,98790.20
2019-01-30T16:19:35.060Z,98797.89
2019-01-30T16:22:38.432Z,98800.02
2019-01-30T16:25:41.810Z,98805.55
2019-01-30T16:28:45.230Z,98808.11
2019-01-30T16:31:48.596Z,98814.97
2019-01-30T16:34:51.985Z,98818.81
2019-01-30T16:37:55.427Z,98821.38
2019-01-30T16:40:58.806Z,98820.92
2019-01-30T16:44:02.181Z,98833.31
2019-01-30T16:47:05.634Z,98835.03
2019-01-30T16:50:48.924Z,98842.70
2019-01-30T16:53:52.301Z,98845.27
2019-01-30T16:56:55.678Z,98851.23
2019-01-30T16:59:59.066Z,98862.80
2019-01-30T17:03:42.345Z,98862.80
2019-01-30T17:06:45.744Z,98867.05
2019-01-30T17:10:09.610Z,98872.17
2019-01-30T17:13:12.995Z,98880.71
2019-01-30T17:16:16.366Z,98884.14
2019-01-30T17:19:19.732Z,98883.70
2019-01-30T17:22:23.191Z,98889.27
2019-01-30T17:25:26.799Z,98886.28
2019-01-30T17:28:30.187Z,98896.95
2019-01-30T17:31:33.567Z,98896.52
2019-01-30T17:34:36.935Z,98903.33
2019-01-30T17:37:40.592Z,98909.31
2019-01-30T17:41:23.888Z,98909.31
2019-01-30T17:44:27.264Z,98907.17
2019-01-30T17:47:30.629Z,98912.70
2019-01-30T17:50:34.009Z,98914.02
2019-01-30T17:53:37.387Z,98914.86
2019-01-30T17:56:40.771Z,98914.02
2019-01-30T17:59:44.141Z,98920.82
2019-01-30T18:02:47.527Z,98919.09
2019-01-30T18:05:50.976Z,98921.64
2019-01-30T18:08:54.354Z,98918.96
2019-01-30T18:11:57.751Z,98919.98
2019-01-30T18:15:01.131Z,98924.72
2019-01-30T18:18:44.661Z,98924.70
2019-01-30T18:21:48.043Z,98931.97
2019-01-30T18:24:51.427Z,98937.05
2019-01-30T18:27:55.088Z,98941.20
2019-01-30T18:30:58.538Z,98936.62
2019-01-30T18:34:01.937Z,98937.91
2019-01-30T18:37:05.455Z,98942.58
2019-01-30T18:40:48.788Z,98946.44
2019-01-30T18:43:52.172Z,98948.03
2019-01-30T18:46:55.561Z,98941.30
2019-01-30T18:49:58.938Z,98941.23
2019-01-30T18:53:02.314Z,98952.30
2019-01-30T18:56:05.760Z,98952.29
2019-01-30T18:59:09.162Z,98950.53
2019-01-30T19:02:12.533Z,98951.88
2019-01-30T19:05:55.824Z,98953.95
2019-01-30T19:08:59.213Z,98955.38
2019-01-30T19:12:02.603Z,98952.76
2019-01-30T19:15:26.761Z,98957.45
2019-01-30T19:18:37.823Z,98960.78
2019-01-30T19:21:41.211Z,98973.97
2019-01-30T19:24:44.587Z,98968.11
2019-01-30T19:27:48.317Z,98973.66
2019-01-30T19:30:51.694Z,98973.88
2019-01-30T19:33:55.087Z,98980.25
2019-01-30T19:37:17.886Z,98973.81
2019-01-30T19:40:21.327Z,98979.45
2019-01-30T19:43:25.010Z,98976.06
2019-01-30T19:46:28.355Z,98984.57
2019-01-30T19:49:31.739Z,98987.44
2019-01-30T19:52:35.112Z,98989.27
2019-01-30T19:55:38.477Z,98993.17
2019-01-30T19:58:41.850Z,98996.14
2019-01-30T20:01:45.213Z,98995.70
2019-01-30T20:04:48.595Z,98996.58
2019-01-30T20:07:52.036Z,98991.91
2019-01-30T20:10:55.409Z,98983.53
2019-01-30T20:13:59.200Z,98982.63
2019-01-30T20:17:10.353Z,98985.57
2019-01-30T20:20:16.329Z,98990.30
2019-01-30T20:23:31.241Z,98990.77
2019-01-30T20:26:34.611Z,98998.49
2019-01-30T20:29:37.979Z,99003.20
2019-01-30T20:32:53.362Z,99008.22
2019-01-30T20:35:56.715Z,99012.09
2019-01-30T20:39:00.086Z,99012.09
2019-01-30T20:42:03.462Z,99014.72
2019-01-30T20:45:10.271Z,99019.33
2019-01-30T20:48:19.701Z,99024.87
2019-01-30T20:51:23.078Z,99030.45
2019-01-30T20:54:26.461Z,99036.81
2019-01-30T20:57:29.828Z,99038.44
2019-01-30T21:00:35.732Z,99039.33
2019-01-30T21:03:39.112Z,99033.32
2019-01-30T21:06:42.479Z,99037.67
2019-01-30T21:09:45.863Z,99044.34
2019-01-30T21:12:49.556Z,99039.63
2019-01-30T21:15:52.919Z,99046.81
2019-01-30T21:18:56.527Z,99044.25
2019-01-30T21:21:59.891Z,99044.34
2019-01-30T21:25:03.927Z,99042.16
2019-01-30T21:28:07.375Z,99041.77
2019-01-30T21:31:10.777Z,99054.17
2019-01-30T21:34:14.123Z,99052.16
2019-01-30T21:37:20.473Z,99052.12
2019-01-30T21:40:22.672Z,99057.73
2019-01-30T21:43:26.189Z,99052.90
2019-01-30T21:46:29.485Z,99056.25
2019-01-30T21:49:32.931Z,99059.70
2019-01-30T21:52:36.309Z,99060.06
2019-01-30T21:55:39.692Z,99063.59
2019-01-30T21:58:43.068Z,99064.06
2019-01-30T22:01:46.444Z,99077.20
2019-01-30T22:04:49.830Z,99078.51
2019-01-30T22:08:00.575Z,99075.70
2019-01-30T22:10:58.326Z,99069.78
2019-01-30T22:14:01.707Z,99077.91
2019-01-30T22:17:05.146Z,99080.97
2019-01-30T22:20:20.291Z,99081.42
2019-01-30T22:23:23.672Z,99077.58
2019-01-30T22:26:27.035Z,99081.69
2019-01-30T22:29:33.575Z,99087.59
2019-01-30T22:32:36.937Z,99085.89
2019-01-30T22:35:40.327Z,99094.00
2019-01-30T22:38:43.700Z,99095.41
2019-01-30T22:41:47.068Z,99096.69
2019-01-30T22:44:50.443Z,99104.10
2019-01-30T22:47:53.814Z,99105.64
2019-01-30T22:50:57.189Z,99097.62
2019-01-30T22:54:00.572Z,99102.62
2019-01-30T22:57:03.942Z,99105.00
2019-01-30T23:00:57.704Z,99101.43
2019-01-30T23:04:04.154Z,99104.78
2019-01-30T23:07:16.228Z,99107.09
2019-01-30T23:10:25.324Z,99112.27
2019-01-30T23:13:34.514Z,99116.34
2019-01-30T23:16:52.701Z,99114.76
2019-01-30T23:19:59.180Z,99119.33
2019-01-30T23:23:11.563Z,99112.48
2019-01-30T23:26:20.995Z,99118.94
2019-01-30T23:29:27.425Z,99117.86
2019-01-30T23:32:51.907Z,99121.62
2019-01-30T23:36:10.257Z,99130.44
2019-01-30T23:39:37.830Z,99145.10
2019-01-30T23:42:52.958Z,99145.23
2019-01-30T23:46:17.059Z,99142.07
2019-01-30T23:49:41.541Z,99149.29
2019-01-30T23:53:04.498Z,99142.71
2019-01-30T23:56:13.870Z,99142.90
2019-01-30T23:59:26.217Z,99145.58
